Time;durP1;ratioP1;P1;durP2;ratioP2;P2;SDS_P1;SDS_P2;PMS_P1;PMS_P2;Temp;Humidity;BMP_temperature;BMP_pressure;BME280_temperature;BME280_humidity;BME280_pressure;Samples;Min_cycle;Max_cycle;Signal;HPM_P1;HPM_P2
2022/09/16 00:00:31;;;;;;;4.25;1.75;;;;;;;23.71;44.72;100863.56;5038361;28;20383;-68
2022/09/16 00:02:57;;;;;;;5.30;2.00;;;;;;;23.68;44.62;100860.47;5035305;28;20044;-69
2022/09/16 00:05:24;;;;;;;5.38;2.65;;;;;;;23.68;44.49;100865.78;5033026;28;20041;-68
2022/09/16 00:07:49;;;;;;;3.30;1.98;;;;;;;23.71;44.65;100868.06;5036166;28;20048;-68
2022/09/16 00:10:15;;;;;;;1.67;1.40;;;;;;;23.67;44.71;100864.16;5031927;28;20416;-68
2022/09/16 00:12:41;;;;;;;3.60;1.83;;;;;;;23.67;44.74;100867.63;5031400;28;20109;-68
2022/09/16 00:15:08;;;;;;;4.57;2.40;;;;;;;23.64;44.59;100864.56;5036307;28;20037;-68
2022/09/16 00:17:34;;;;;;;3.45;1.90;;;;;;;23.60;44.80;100873.97;5037361;28;20064;-68
2022/09/16 00:20:00;;;;;;;2.88;1.65;;;;;;;23.64;44.77;100870.72;5038765;28;20462;-68
2022/09/16 00:22:28;;;;;;;2.97;1.73;;;;;;;23.58;44.70;100860.06;5034256;28;20032;-68
2022/09/16 00:24:53;;;;;;;3.80;1.75;;;;;;;23.59;44.63;100873.16;5037504;28;20049;-68
2022/09/16 00:27:19;;;;;;;6.22;2.05;;;;;;;23.51;44.61;100863.50;5040307;28;20033;-68
2022/09/16 00:29:44;;;;;;;3.88;1.90;;;;;;;23.58;44.95;100884.81;5041813;28;20041;-68
2022/09/16 00:32:10;;;;;;;2.97;1.70;;;;;;;23.56;44.82;100873.53;5033154;28;20394;-68
2022/09/16 00:34:35;;;;;;;2.13;1.50;;;;;;;23.58;44.67;100878.69;5041805;28;20282;-68
2022/09/16 00:37:03;;;;;;;5.35;2.15;;;;;;;23.53;44.87;100873.97;5038223;28;20710;-69
2022/09/16 00:39:29;;;;;;;3.90;2.60;;;;;;;23.51;44.95;100870.66;5040163;28;20041;-68
2022/09/16 00:41:55;;;;;;;3.78;1.60;;;;;;;23.51;44.90;100863.50;5033383;28;20072;-68
2022/09/16 00:44:54;;;;;;;2.47;1.27;;;;;;;23.52;44.69;100861.69;5046960;28;20071;-68
2022/09/16 00:47:27;;;;;;;;;;;;;;;23.51;44.82;100860.03;5038476;28;20521;-68
2022/09/16 00:49:56;;;;;;;4.00;2.00;;;;;;;23.55;44.80;100868.44;5034038;28;19966;-67
2022/09/16 00:52:22;;;;;;;3.63;1.80;;;;;;;23.47;44.99;100859.63;5042607;28;20519;-68
2022/09/16 00:54:48;;;;;;;3.83;2.28;;;;;;;23.42;44.98;100850.63;5035482;28;20040;-68
2022/09/16 00:57:14;;;;;;;3.13;1.52;;;;;;;23.43;44.78;100849.59;5036176;28;20051;-68
2022/09/16 00:59:44;;;;;;;2.50;1.40;;;;;;;23.44;44.94;100860.03;5043516;28;20036;-68
2022/09/16 01:02:14;;;;;;;2.40;1.35;;;;;;;23.42;44.95;100864.72;5039123;28;20294;-68
2022/09/16 01:05:01;;;;;;;2.13;1.30;;;;;;;23.46;44.92;100854.50;5042831;28;20031;-70
2022/09/16 01:07:39;;;;;;;2.20;1.50;;;;;;;23.44;45.12;100859.22;5032088;28;20120;-68
2022/09/16 01:10:05;;;;;;;5.60;2.10;;;;;;;23.38;45.08;100849.41;5035613;28;20087;-68
2022/09/16 01:12:32;;;;;;;3.55;1.60;;;;;;;23.43;44.82;100852.25;5035288;28;20507;-68
2022/09/16 01:14:59;;;;;;;3.15;1.67;;;;;;;23.38;44.97;100844.09;5046488;28;20056;-67
2022/09/16 01:18:02;;;;;;;2.25;1.50;;;;;;;23.40;44.97;100845.53;5033977;28;20660;-72
2022/09/16 01:21:05;;;;;;;3.95;2.30;;;;;;;23.42;45.14;100842.66;5037215;28;20198;-69
2022/09/16 01:23:49;;;;;;;2.55;1.58;;;;;;;23.37;45.01;100847.78;5041683;28;20078;-71
2022/09/16 01:27:00;;;;;;;3.78;1.42;;;;;;;23.38;44.79;100846.75;5038690;28;20222;-70
2022/09/16 01:29:44;;;;;;;3.63;1.73;;;;;;;23.37;45.11;100853.91;5020497;28;20049;-70
2022/09/16 01:32:24;;;;;;;4.75;1.80;;;;;;;23.33;45.04;100849.16;5036778;28;20044;-71
2022/09/16 01:35:01;;;;;;;2.30;1.50;;;;;;;23.36;45.17;100854.09;5038283;28;20047;-70
2022/09/16 01:37:42;;;;;;;2.75;1.60;;;;;;;23.34;44.99;100856.13;5042338;28;20688;-70
2022/09/16 01:40:29;;;;;;;2.33;1.58;;;;;;;23.26;45.03;100851.00;5038115;28;20047;-71
2022/09/16 01:43:14;;;;;;;2.78;1.60;;;;;;;23.31;45.19;100860.00;5042809;28;20041;-71
2022/09/16 01:45:51;;;;;;;4.55;1.67;;;;;;;23.32;45.00;100848.34;5039170;28;20576;-71
2022/09/16 01:48:26;;;;;;;2.60;1.90;;;;;;;23.28;45.09;100857.75;5034657;28;20127;-72
2022/09/16 01:51:13;;;;;;;2.53;1.45;;;;;;;23.30;45.13;100861.03;5044974;28;20118;-71
2022/09/16 01:53:47;;;;;;;2.33;1.50;;;;;;;23.31;45.11;100859.19;5036271;28;20037;-71
2022/09/16 01:56:25;;;;;;;2.40;1.30;;;;;;;23.28;45.17;100854.28;5035520;28;20743;-71
2022/09/16 01:58:58;;;;;;;2.67;1.30;;;;;;;23.24;45.22;100848.56;5041235;28;20030;-72
2022/09/16 02:01:53;;;;;;;2.42;1.27;;;;;;;23.28;45.03;100860.41;5040964;28;20040;-70
2022/09/16 02:04:24;;;;;;;3.00;1.42;;;;;;;23.28;45.05;100856.94;5037954;28;21726;-70
2022/09/16 02:06:55;;;;;;;1.85;1.23;;;;;;;23.28;45.29;100856.94;5042111;28;20043;-70
2022/09/16 02:09:29;;;;;;;3.75;1.73;;;;;;;23.27;45.06;100857.97;5033601;28;20049;-72
2022/09/16 02:12:04;;;;;;;3.53;1.60;;;;;;;23.24;44.96;100847.75;5035366;28;20032;-70
2022/09/16 02:14:34;;;;;;;3.40;1.05;;;;;;;23.25;45.01;100842.22;5038126;28;20123;-71
2022/09/16 02:17:19;;;;;;;3.15;1.30;;;;;;;23.27;45.00;100845.50;5043421;28;20025;-70
2022/09/16 02:19:51;;;;;;;3.83;1.52;;;;;;;23.29;45.20;100845.28;5042344;28;20063;-71
2022/09/16 02:22:22;;;;;;;3.13;1.10;;;;;;;23.27;45.01;100842.84;5042815;28;20094;-70
2022/09/16 02:24:50;;;;;;;2.05;1.17;;;;;;;23.29;45.00;100859.38;5038311;28;20095;-70
2022/09/16 02:27:20;;;;;;;4.00;1.40;;;;;;;23.31;45.00;100856.53;5034516;28;20072;-70
2022/09/16 02:29:51;;;;;;;3.30;1.38;;;;;;;23.28;44.82;100848.97;5039637;28;20033;-72
2022/09/16 02:32:19;;;;;;;2.30;1.08;;;;;;;23.27;44.95;100853.47;5037902;28;20045;-70
2022/09/16 02:34:49;;;;;;;1.90;1.40;;;;;;;23.29;44.79;100845.28;5040637;28;20040;-71
2022/09/16 02:37:18;;;;;;;4.45;1.23;;;;;;;23.28;44.87;100852.44;5039035;28;20037;-71
2022/09/16 02:39:49;;;;;;;3.30;1.45;;;;;;;23.26;44.88;100851.00;5036685;28;20063;-71
2022/09/16 02:42:15;;;;;;;1.60;1.20;;;;;;;23.25;45.00;100849.38;5032431;28;20043;-69
2022/09/16 02:44:44;;;;;;;2.03;0.93;;;;;;;23.27;44.96;100849.97;5035579;28;20135;-69
2022/09/16 02:47:20;;;;;;;2.85;1.45;;;;;;;23.20;45.19;100844.66;5040436;28;20042;-70
2022/09/16 02:49:54;;;;;;;2.50;1.15;;;;;;;23.24;44.98;100853.88;5032545;28;20144;-69
2022/09/16 02:52:43;;;;;;;2.05;1.00;;;;;;;23.24;44.86;100853.06;5045579;28;20051;-69
2022/09/16 02:55:18;;;;;;;1.70;1.10;;;;;;;23.24;44.83;100869.81;5040161;28;20048;-69
2022/09/16 02:57:44;;;;;;;2.10;1.27;;;;;;;23.21;45.14;100878.19;5040043;28;20036;-69
2022/09/16 03:00:09;;;;;;;4.80;1.38;;;;;;;23.21;44.87;100889.63;5029351;28;20215;-69
2022/09/16 03:02:35;;;;;;;3.65;1.85;;;;;;;23.21;44.80;100872.88;5034012;28;20034;-69
2022/09/16 03:05:01;;;;;;;2.15;1.25;;;;;;;23.23;44.81;100870.84;5029929;28;20688;-71
2022/09/16 03:07:26;;;;;;;2.20;1.17;;;;;;;23.17;44.92;100858.38;5033549;28;20064;-69
2022/09/16 03:09:52;;;;;;;4.53;1.55;;;;;;;23.24;44.92;100861.03;5053890;28;20036;-70
2022/09/16 03:12:51;;;;;;;2.35;1.10;;;;;;;23.17;44.98;100856.53;5036779;28;20029;-69
2022/09/16 03:15:45;;;;;;;2.70;1.75;;;;;;;23.17;44.95;100850.38;5036581;28;20490;-69
2022/09/16 03:19:02;;;;;;;3.85;1.85;;;;;;;23.14;45.14;100846.28;5040695;28;20028;-68
2022/09/16 03:21:36;;;;;;;2.80;1.50;;;;;;;23.16;44.90;100841.59;5002797;28;20053;-70
2022/09/16 03:24:11;;;;;;;4.90;1.40;;;;;;;23.16;45.25;100838.09;5038893;28;20063;-69
2022/09/16 03:26:55;;;;;;;1.38;1.27;;;;;;;23.16;45.03;100841.59;5037144;28;20053;-70
2022/09/16 03:29:51;;;;;;;7.18;1.23;;;;;;;23.15;45.17;100841.78;5038186;28;20557;-69
2022/09/16 03:32:22;;;;;;;4.25;1.48;;;;;;;23.07;45.13;100832.16;5032758;28;20049;-69
2022/09/16 03:34:51;;;;;;;2.85;0.93;;;;;;;23.12;45.02;100834.22;5037778;28;20037;-69
2022/09/16 03:37:18;;;;;;;;;;;;;;;23.13;45.13;100841.16;5037182;28;20556;-69
2022/09/16 03:39:51;;;;;;;2.28;0.90;;;;;;;23.12;45.28;100842.19;5040903;28;20244;-69
2022/09/16 03:42:18;;;;;;;2.50;1.30;;;;;;;23.12;45.18;100839.53;5034371;28;20136;-69
2022/09/16 03:44:43;;;;;;;4.93;1.30;;;;;;;23.11;45.15;100837.91;5037582;28;20033;-69
2022/09/16 03:47:09;;;;;;;2.45;1.30;;;;;;;23.12;44.99;100835.03;5038418;28;20491;-69
2022/09/16 03:49:38;;;;;;;3.67;1.40;;;;;;;23.08;45.13;100825.84;5032775;28;20302;-69
2022/09/16 03:52:07;;;;;;;4.18;1.27;;;;;;;23.07;45.47;100831.34;5036364;28;20033;-70
2022/09/16 03:54:33;;;;;;;2.78;1.02;;;;;;;23.07;45.17;100834.81;5035140;28;20483;-69
2022/09/16 03:56:59;;;;;;;3.70;1.30;;;;;;;23.08;45.03;100836.47;5033649;28;20044;-69
2022/09/16 03:59:25;;;;;;;3.70;1.75;;;;;;;23.07;44.94;100832.16;5035875;28;20033;-69
2022/09/16 04:01:51;;;;;;;3.03;1.17;;;;;;;23.08;45.13;100843.59;5039643;28;20041;-68
2022/09/16 04:04:17;;;;;;;2.63;1.10;;;;;;;23.10;44.91;100855.66;5043682;28;20048;-69
2022/09/16 04:06:43;;;;;;;2.15;1.27;;;;;;;23.09;45.10;100853.22;5040056;28;20030;-69
2022/09/16 04:09:12;;;;;;;2.92;1.42;;;;;;;23.04;45.21;100840.53;5042226;28;20037;-69
2022/09/16 04:11:39;;;;;;;3.17;1.10;;;;;;;23.05;45.36;100846.69;5035984;28;20671;-69
2022/09/16 04:14:05;;;;;;;3.65;0.90;;;;;;;23.08;45.18;100833.00;5036914;28;20401;-69
2022/09/16 04:16:32;;;;;;;1.75;1.45;;;;;;;23.03;45.29;100833.59;5038985;28;20083;-69
2022/09/16 04:18:57;;;;;;;2.03;1.02;;;;;;;23.04;44.99;100832.56;5043008;28;20033;-69
2022/09/16 04:21:23;;;;;;;2.88;1.15;;;;;;;23.05;45.17;100828.91;5042667;28;20060;-69
2022/09/16 04:23:49;;;;;;;1.92;0.90;;;;;;;23.03;45.38;100830.94;5039030;28;20102;-69
2022/09/16 04:26:16;;;;;;;1.55;1.00;;;;;;;23.02;45.24;100824.00;5035156;28;20073;-69
2022/09/16 04:28:41;;;;;;;2.75;1.27;;;;;;;23.01;45.38;100827.66;5037982;28;20131;-69
2022/09/16 04:31:11;;;;;;;1.27;1.00;;;;;;;23.02;45.12;100820.53;5042089;28;20302;-69
2022/09/16 04:33:36;;;;;;;1.33;0.90;;;;;;;23.02;45.26;100816.03;5041718;28;20044;-69
2022/09/16 04:36:08;;;;;;;2.70;1.10;;;;;;;23.01;45.03;100821.53;5036302;28;20508;-69
2022/09/16 04:38:35;;;;;;;2.45;0.95;;;;;;;22.96;45.33;100816.81;5040233;28;20040;-69
2022/09/16 04:41:17;;;;;;;3.38;1.05;;;;;;;22.98;45.25;100820.13;5037206;28;20068;-69
2022/09/16 04:43:43;;;;;;;2.50;0.95;;;;;;;23.00;45.24;100819.91;5041650;28;20037;-69
2022/09/16 04:46:09;;;;;;;2.33;0.95;;;;;;;22.99;45.18;100812.97;5047682;28;20086;-69
2022/09/16 04:48:37;;;;;;;1.50;1.00;;;;;;;22.97;45.08;100814.97;5043700;28;20723;-70
2022/09/16 04:51:08;;;;;;;2.63;1.20;;;;;;;23.00;45.15;100814.59;5040901;28;20893;-69
2022/09/16 04:53:35;;;;;;;3.55;1.55;;;;;;;22.96;45.26;100816.00;5038473;28;21196;-70
2022/09/16 04:56:18;;;;;;;2.35;1.17;;;;;;;22.98;44.99;100813.94;5047014;28;20034;-70
2022/09/16 04:58:48;;;;;;;3.58;2.00;;;;;;;22.78;45.17;100787.31;5038019;28;20036;-69
2022/09/16 05:01:15;;;;;;;;;;;;;;;22.91;45.46;100819.25;5058618;28;20562;-70
2022/09/16 05:03:42;;;;;;;3.50;1.23;;;;;;;22.90;45.23;100815.78;5040032;28;19924;-69
2022/09/16 05:06:11;;;;;;;2.03;0.90;;;;;;;22.93;45.12;100819.88;5039753;28;20036;-70
2022/09/16 05:08:37;;;;;;;1.63;1.02;;;;;;;22.94;45.05;100821.50;5041012;28;20091;-70
2022/09/16 05:11:14;;;;;;;2.58;1.25;;;;;;;22.92;45.42;100820.91;5034639;28;21331;-68
2022/09/16 05:13:40;;;;;;;2.35;1.25;;;;;;;22.90;45.30;100813.13;5048120;28;20040;-70
2022/09/16 05:16:12;;;;;;;3.35;1.23;;;;;;;22.92;45.12;100808.44;5041039;28;20036;-70
2022/09/16 05:18:39;;;;;;;1.30;1.02;;;;;;;22.89;45.19;100811.50;5039828;28;20040;-70
2022/09/16 05:21:08;;;;;;;3.28;1.25;;;;;;;22.86;45.17;100814.56;5048541;28;20041;-70
2022/09/16 05:23:34;;;;;;;3.85;1.20;;;;;;;22.84;45.03;100805.97;5039671;28;20041;-70
2022/09/16 05:26:09;;;;;;;3.67;0.93;;;;;;;22.88;45.25;100809.84;5038074;28;20539;-68
2022/09/16 05:28:35;;;;;;;2.70;1.02;;;;;;;22.87;44.95;100810.06;5040516;28;20067;-70
2022/09/16 05:31:13;;;;;;;4.05;1.33;;;;;;;22.88;45.32;100817.81;5041602;28;20053;-69
2022/09/16 05:33:41;;;;;;;2.47;1.00;;;;;;;22.86;45.25;100819.03;5037803;28;20140;-70
2022/09/16 05:36:10;;;;;;;2.70;1.10;;;;;;;22.88;45.01;100820.47;5044004;28;20775;-70
2022/09/16 05:38:35;;;;;;;3.95;1.08;;;;;;;22.87;44.99;100823.34;5041194;28;20205;-68
2022/09/16 05:41:03;;;;;;;2.60;1.00;;;;;;;22.87;45.31;100826.81;5037323;28;20527;-70
2022/09/16 05:43:29;;;;;;;3.97;1.02;;;;;;;22.86;44.96;100832.31;5040629;28;20043;-70
2022/09/16 05:45:55;;;;;;;1.25;0.75;;;;;;;22.87;45.13;100837.44;5045341;28;20423;-70
2022/09/16 05:48:22;;;;;;;2.55;1.45;;;;;;;22.89;45.06;100834.56;5037959;28;20077;-69
2022/09/16 05:50:53;;;;;;;2.53;1.05;;;;;;;22.86;45.08;100832.31;5039091;28;20434;-69
2022/09/16 05:53:18;;;;;;;3.33;0.90;;;;;;;22.85;45.20;100839.47;5038006;28;20045;-70
2022/09/16 05:56:17;;;;;;;3.13;1.10;;;;;;;22.85;45.02;100833.34;5040939;28;20094;-69
2022/09/16 05:58:43;;;;;;;1.38;0.90;;;;;;;22.79;45.15;100829.59;5022910;28;20064;-69
2022/09/16 06:01:13;;;;;;;2.08;1.13;;;;;;;22.84;44.97;100832.53;5034870;28;20052;-70
2022/09/16 06:03:40;;;;;;;2.50;1.38;;;;;;;22.83;44.95;100836.19;5036374;28;20041;-70
2022/09/16 06:06:12;;;;;;;2.65;0.82;;;;;;;22.80;45.28;100828.59;5032911;28;20041;-69
2022/09/16 06:08:39;;;;;;;3.05;0.93;;;;;;;22.82;44.97;100833.75;5035038;28;20039;-70
2022/09/16 06:11:06;;;;;;;4.00;0.85;;;;;;;;;;5034741;28;22234;-70
2022/09/16 06:13:32;;;;;;;2.50;1.13;;;;;;;22.79;45.02;100828.78;5032935;28;20075;-70
2022/09/16 06:15:58;;;;;;;2.42;1.25;;;;;;;;;;5037024;28;20037;-70
2022/09/16 06:18:25;;;;;;;4.53;1.30;;;;;;;22.77;45.00;100825.50;5038730;28;20481;-70
2022/09/16 06:20:51;;;;;;;2.83;1.25;;;;;;;22.80;44.93;100828.59;5035934;28;20069;-70
2022/09/16 06:23:17;;;;;;;2.35;1.10;;;;;;;22.78;44.76;100825.31;5038438;28;20087;-70
2022/09/16 06:25:43;;;;;;;5.57;1.75;;;;;;;22.77;44.80;100817.53;5039503;28;20049;-70
2022/09/16 06:28:10;;;;;;;3.15;1.30;;;;;;;22.80;44.98;100819.78;5038769;28;20222;-70
2022/09/16 06:30:36;;;;;;;0.93;0.70;;;;;;;22.78;44.88;100820.00;5039672;28;20040;-68
2022/09/16 06:33:02;;;;;;;2.58;1.08;;;;;;;22.79;45.15;100810.19;5035891;28;20479;-70
2022/09/16 06:35:28;;;;;;;2.08;0.90;;;;;;;22.78;44.83;100812.03;5035988;28;20047;-70
2022/09/16 06:37:54;;;;;;;3.72;1.70;;;;;;;22.81;44.90;100806.34;5032282;28;20029;-69
2022/09/16 06:40:20;;;;;;;2.63;1.25;;;;;;;22.79;44.76;100808.34;5031095;28;20110;-70
2022/09/16 06:42:45;;;;;;;4.03;1.10;;;;;;;22.77;45.03;100804.28;5040349;28;20058;-69
2022/09/16 06:45:12;;;;;;;4.35;1.52;;;;;;;22.84;44.56;100808.63;5038283;28;20037;-70
2022/09/16 06:47:37;;;;;;;3.30;1.20;;;;;;;22.80;45.17;100812.69;5036213;28;20029;-69
2022/09/16 06:50:04;;;;;;;3.42;1.65;;;;;;;22.86;44.88;100813.75;5034478;28;20053;-67
2022/09/16 06:52:30;;;;;;;2.15;1.00;;;;;;;22.87;44.77;100810.88;5041866;28;20025;-69
2022/09/16 06:54:56;;;;;;;2.47;0.98;;;;;;;22.86;44.55;100814.56;5043495;28;20814;-69
2022/09/16 06:57:22;;;;;;;3.55;1.75;;;;;;;22.79;44.08;100808.34;5036622;28;20033;-69
2022/09/16 06:59:48;;;;;;;3.97;1.30;;;;;;;22.79;43.95;100807.53;5039890;28;20407;-69
2022/09/16 07:02:15;;;;;;;12.98;1.88;;;;;;;22.83;44.23;100811.50;5037197;28;20490;-70
2022/09/16 07:04:41;;;;;;;3.97;1.50;;;;;;;22.85;44.39;100809.44;5035486;28;20048;-70
2022/09/16 07:07:06;;;;;;;6.90;2.28;;;;;;;22.79;44.32;100808.34;5036191;28;20049;-69
2022/09/16 07:09:32;;;;;;;3.95;1.42;;;;;;;22.84;44.61;100813.13;5035862;28;20045;-70
2022/09/16 07:11:58;;;;;;;4.20;1.58;;;;;;;22.84;44.54;100813.13;5036164;28;20567;-69
2022/09/16 07:14:24;;;;;;;5.75;1.42;;;;;;;22.86;44.61;100805.78;5034520;28;20083;-70
2022/09/16 07:16:50;;;;;;;5.18;2.08;;;;;;;22.85;44.43;100804.13;5033714;28;20040;-69
2022/09/16 07:19:15;;;;;;;6.18;1.45;;;;;;;22.88;44.84;100815.16;5034141;28;20064;-69
2022/09/16 07:21:41;;;;;;;4.63;1.58;;;;;;;22.91;44.53;100816.59;5037198;28;20442;-69
2022/09/16 07:24:10;;;;;;;5.50;1.33;;;;;;;22.89;44.43;100818.63;5035582;28;20036;-69
2022/09/16 07:26:36;;;;;;;3.72;1.30;;;;;;;22.86;44.51;100821.69;5035482;28;20119;-69
2022/09/16 07:29:05;;;;;;;3.63;1.58;;;;;;;22.92;44.05;100824.38;5033645;28;20037;-69
2022/09/16 07:31:33;;;;;;;3.55;1.40;;;;;;;22.90;44.39;100815.78;5064209;28;20041;-69
2022/09/16 07:34:02;;;;;;;5.78;1.75;;;;;;;22.92;44.29;100816.41;5038338;28;20709;-69
2022/09/16 07:36:42;;;;;;;5.27;1.70;;;;;;;23.00;44.36;100828.69;5038725;28;20040;-72
2022/09/16 07:39:09;;;;;;;4.15;1.20;;;;;;;22.98;44.45;100824.56;5034932;28;20454;-70
2022/09/16 07:41:37;;;;;;;3.47;1.40;;;;;;;23.00;44.17;100825.22;5035972;28;20090;-70
2022/09/16 07:44:04;;;;;;;7.68;1.52;;;;;;;23.00;44.30;100827.88;5034103;28;20052;-69
2022/09/16 07:46:32;;;;;;;5.43;2.13;;;;;;;23.01;44.14;100825.03;5033092;28;20042;-70
2022/09/16 07:48:59;;;;;;;4.85;1.80;;;;;;;23.01;44.29;100829.50;5033486;28;20103;-70
2022/09/16 07:51:26;;;;;;;3.22;1.17;;;;;;;23.03;44.26;100830.94;5036115;28;20048;-70
2022/09/16 07:53:54;;;;;;;3.75;1.33;;;;;;;22.99;44.28;100827.06;5034335;28;20037;-73
2022/09/16 07:56:24;;;;;;;4.47;1.30;;;;;;;23.08;44.23;100830.34;5035751;28;20091;-70
2022/09/16 07:58:50;;;;;;;7.03;1.92;;;;;;;23.09;44.13;100835.44;5031550;28;21617;-69
2022/09/16 08:01:17;;;;;;;6.28;1.60;;;;;;;23.06;43.94;100838.50;5034427;28;20031;-70
2022/09/16 08:03:43;;;;;;;4.88;1.67;;;;;;;23.03;43.97;100838.09;5035467;28;20045;-69
2022/09/16 08:06:14;;;;;;;5.90;1.58;;;;;;;23.01;44.05;100840.94;5038679;28;20049;-70
2022/09/16 08:08:39;;;;;;;6.68;2.40;;;;;;;23.01;43.99;100832.97;5037707;28;20037;-70
2022/09/16 08:11:06;;;;;;;4.20;1.42;;;;;;;23.06;43.70;100838.50;5039813;28;20616;-70
2022/09/16 08:13:33;;;;;;;10.60;2.08;;;;;;;23.06;43.57;100838.50;5039302;28;20033;-70
2022/09/16 08:16:04;;;;;;;6.05;2.10;;;;;;;23.06;43.65;100846.47;5034586;28;20055;-70
2022/09/16 08:18:30;;;;;;;9.07;2.10;;;;;;;23.06;43.73;100835.84;5039092;28;20098;-70
2022/09/16 08:20:56;;;;;;;3.20;1.25;;;;;;;23.03;43.41;100843.41;5033673;28;20032;-70
2022/09/16 08:23:22;;;;;;;7.10;1.95;;;;;;;23.05;43.65;100842.19;5039960;28;20110;-70
2022/09/16 08:25:55;;;;;;;4.80;1.55;;;;;;;23.04;43.51;100840.53;5039374;28;20867;-70
2022/09/16 08:28:21;;;;;;;1.90;1.25;;;;;;;23.04;43.64;100837.06;5032999;28;20483;-69
2022/09/16 08:30:46;;;;;;;6.50;1.95;;;;;;;23.06;43.46;100838.50;5035254;28;20095;-69
2022/09/16 08:33:12;;;;;;;6.45;1.83;;;;;;;23.05;43.20;100834.22;5040128;28;20119;-69
2022/09/16 08:35:37;;;;;;;5.20;1.50;;;;;;;23.05;43.51;100836.06;5038108;28;20410;-69
2022/09/16 08:38:03;;;;;;;4.55;1.55;;;;;;;23.04;43.30;100837.88;5036989;28;20419;-69
2022/09/16 08:40:34;;;;;;;2.47;1.10;;;;;;;23.05;43.15;100834.22;5033970;28;20441;-69
2022/09/16 08:43:08;;;;;;;3.28;1.65;;;;;;;23.08;43.27;100840.97;5035705;28;20036;-70
2022/09/16 08:45:55;;;;;;;4.72;1.58;;;;;;;23.08;43.06;100833.00;5021592;28;20067;-69
2022/09/16 08:48:37;;;;;;;6.90;2.10;;;;;;;23.06;43.14;100840.34;5034289;28;20505;-70
2022/09/16 08:51:05;;;;;;;5.25;1.90;;;;;;;23.08;43.03;100830.34;5042381;28;20630;-69
2022/09/16 08:53:43;;;;;;;5.47;1.95;;;;;;;23.07;42.91;100836.66;5041259;28;20057;-70
2022/09/16 08:56:15;;;;;;;4.93;1.67;;;;;;;23.08;42.95;100838.31;5036168;28;20757;-69
2022/09/16 08:58:57;;;;;;;6.18;1.98;;;;;;;23.07;43.05;100834.00;5043648;28;20037;-69
2022/09/16 09:01:50;;;;;;;5.43;1.80;;;;;;;23.04;42.98;100832.56;5037300;28;20506;-70
2022/09/16 09:04:15;;;;;;;5.78;1.42;;;;;;;23.07;42.98;100823.38;5038354;28;20068;-69
2022/09/16 09:06:44;;;;;;;9.35;2.00;;;;;;;23.09;42.89;100829.31;5037346;28;20092;-70
2022/09/16 09:09:40;;;;;;;4.53;1.52;;;;;;;23.07;43.02;100834.81;5039708;28;20415;-69
2022/09/16 09:12:22;;;;;;;5.88;1.63;;;;;;;23.10;42.90;100841.56;5040725;28;20356;-69
2022/09/16 09:15:12;;;;;;;7.22;1.55;;;;;;;23.11;42.65;100829.94;5041010;28;20131;-69
2022/09/16 09:17:44;;;;;;;6.68;1.75;;;;;;;23.12;42.38;100836.88;5037690;28;20115;-69
2022/09/16 09:20:31;;;;;;;10.52;1.80;;;;;;;23.12;42.25;100836.88;5039027;28;20539;-70
2022/09/16 09:23:40;;;;;;;8.85;2.30;;;;;;;23.09;42.01;100827.47;5036866;28;20124;-70
2022/09/16 09:26:10;;;;;;;5.32;1.95;;;;;;;23.14;41.63;100824.19;5027511;28;20047;-69
2022/09/16 09:28:36;;;;;;;;;;;;;;;23.07;41.80;100832.16;5010602;28;20598;-69
2022/09/16 09:31:05;;;;;;;7.32;1.92;;;;;;;23.05;41.66;100833.41;5011300;28;19921;-69
2022/09/16 09:33:54;;;;;;;5.95;1.77;;;;;;;23.09;41.72;100834.63;5011126;28;20614;-69
2022/09/16 09:36:31;;;;;;;7.70;1.73;;;;;;;23.08;41.52;100828.50;5009739;28;20391;-69
2022/09/16 09:39:03;;;;;;;4.70;1.83;;;;;;;23.06;41.54;100830.53;5041327;28;20162;-69
2022/09/16 09:41:33;;;;;;;7.75;2.13;;;;;;;23.04;41.60;100829.91;5042124;28;21024;-69
2022/09/16 09:44:10;;;;;;;5.78;1.85;;;;;;;23.09;41.57;100829.31;5040630;28;20461;-69
2022/09/16 09:46:43;;;;;;;4.88;1.73;;;;;;;23.08;41.14;100836.47;5038822;28;20391;-70
2022/09/16 09:49:13;;;;;;;5.90;2.38;;;;;;;23.07;41.07;100842.78;5036520;28;20115;-69
2022/09/16 09:51:55;;;;;;;5.35;1.83;;;;;;;23.02;41.19;100842.59;5044530;28;20029;-69
2022/09/16 09:54:28;;;;;;;6.78;1.88;;;;;;;23.02;40.97;100855.03;5042034;28;20044;-69
2022/09/16 09:57:17;;;;;;;6.82;2.40;;;;;;;22.99;40.74;100850.97;5041801;28;20036;-69
2022/09/16 10:00:11;;;;;;;8.65;2.08;;;;;;;23.06;40.63;100846.47;5029731;28;20063;-70
2022/09/16 10:02:42;;;;;;;4.95;1.38;;;;;;;23.06;40.78;100837.69;5034346;28;20128;-69
2022/09/16 10:05:26;;;;;;;4.75;1.50;;;;;;;23.05;40.56;100834.22;5037282;28;20033;-69
2022/09/16 10:07:57;;;;;;;10.50;2.10;;;;;;;23.01;40.79;100838.28;5038516;28;20559;-69
2022/09/16 10:10:25;;;;;;;7.38;1.55;;;;;;;23.00;40.46;100847.28;5039761;28;20144;-69
2022/09/16 10:12:50;;;;;;;6.68;1.77;;;;;;;23.00;40.61;100839.31;5039996;28;20028;-69
2022/09/16 10:15:22;;;;;;;5.50;1.60;;;;;;;23.03;40.77;100838.09;5050407;28;20399;-69
2022/09/16 10:17:50;;;;;;;3.95;1.63;;;;;;;23.03;40.21;100833.59;5038331;28;20040;-69
2022/09/16 10:20:36;;;;;;;4.80;1.77;;;;;;;22.99;40.51;100835.03;5039501;28;20056;-69
2022/09/16 10:23:04;;;;;;;6.10;1.67;;;;;;;23.02;40.29;100818.69;5046703;28;20515;-69
2022/09/16 10:25:31;;;;;;;6.43;1.60;;;;;;;23.05;40.21;100822.78;5044174;28;20068;-69
2022/09/16 10:28:02;;;;;;;6.22;1.88;;;;;;;23.03;40.13;100817.66;5045606;28;20041;-69
2022/09/16 10:30:31;;;;;;;6.28;1.90;;;;;;;23.02;40.02;100815.22;5033388;28;20617;-69
2022/09/16 10:33:01;;;;;;;4.93;1.60;;;;;;;23.02;39.91;100829.31;5036468;28;20029;-70
2022/09/16 10:35:32;;;;;;;5.72;1.77;;;;;;;22.99;40.11;100835.03;5035831;28;20476;-69
2022/09/16 10:38:32;;;;;;;5.25;1.45;;;;;;;23.02;40.01;100823.19;5039931;28;20677;-69
2022/09/16 10:41:06;;;;;;;5.07;2.22;;;;;;;23.00;40.20;100823.38;5034292;28;20048;-69
2022/09/16 10:43:31;;;;;;;5.72;1.75;;;;;;;23.02;40.23;100826.66;5031359;28;20067;-70
2022/09/16 10:45:57;;;;;;;6.97;1.88;;;;;;;23.00;40.17;100818.06;5023984;28;20040;-70
2022/09/16 10:48:27;;;;;;;6.30;1.90;;;;;;;23.01;40.04;100813.56;5043462;28;20055;-70
2022/09/16 10:50:56;;;;;;;4.40;1.52;;;;;;;22.97;40.18;100826.41;5038542;28;20065;-71
2022/09/16 10:53:26;;;;;;;4.80;1.65;;;;;;;22.97;40.42;100814.97;5037647;28;20043;-71
2022/09/16 10:56:14;;;;;;;6.25;1.92;;;;;;;22.94;40.41;100820.69;5034675;28;20546;-70
2022/09/16 10:58:40;;;;;;;6.82;1.88;;;;;;;22.91;40.44;100827.22;5030535;28;20044;-70
2022/09/16 11:01:14;;;;;;;5.57;2.03;;;;;;;22.98;40.26;100832.53;5039213;28;20049;-70
2022/09/16 11:03:40;;;;;;;5.25;2.17;;;;;;;22.98;40.21;100827.22;5037303;28;20110;-70
2022/09/16 11:06:21;;;;;;;6.72;1.70;;;;;;;23.03;40.27;100838.09;5036426;28;20113;-70
2022/09/16 11:09:13;;;;;;;6.68;1.85;;;;;;;22.97;40.37;100825.59;5036808;28;20374;-71
2022/09/16 11:11:38;;;;;;;7.57;1.90;;;;;;;22.98;40.63;100838.69;5029146;28;20025;-69
2022/09/16 11:14:31;;;;;;;8.57;2.15;;;;;;;22.95;40.71;100843.56;5040632;28;20108;-69
2022/09/16 11:17:22;;;;;;;4.55;1.58;;;;;;;23.00;40.18;100827.88;5037026;28;20413;-70
2022/09/16 11:20:06;;;;;;;5.57;1.70;;;;;;;22.99;40.16;100832.38;5040563;28;20186;-69
2022/09/16 11:22:50;;;;;;;4.97;1.80;;;;;;;22.95;39.98;100822.31;5049592;28;20041;-70
2022/09/16 11:25:28;;;;;;;8.35;2.08;;;;;;;23.00;40.02;100822.56;5048460;28;20061;-69
2022/09/16 11:28:36;;;;;;;4.70;1.63;;;;;;;22.97;39.90;100826.41;5038590;28;20125;-69
2022/09/16 11:31:43;;;;;;;7.35;2.05;;;;;;;22.98;39.60;100816.59;5042234;28;20615;-70
2022/09/16 11:34:36;;;;;;;6.47;2.17;;;;;;;22.92;40.13;100834.16;5046573;28;20040;-70
2022/09/16 11:37:07;;;;;;;4.60;1.52;;;;;;;22.91;39.93;100822.72;5043150;28;20037;-69
2022/09/16 11:40:02;;;;;;;5.38;1.60;;;;;;;22.94;39.94;100821.50;5041707;28;20048;-70
2022/09/16 11:42:49;;;;;;;6.03;1.42;;;;;;;22.93;40.05;100803.94;5039470;28;20036;-71
2022/09/16 11:45:51;;;;;;;6.20;1.98;;;;;;;22.95;40.02;100817.00;5040265;28;20335;-70
2022/09/16 11:48:47;;;;;;;11.98;2.08;;;;;;;22.95;40.25;100804.56;5064606;28;20037;-70
2022/09/16 11:51:55;;;;;;;5.80;1.33;;;;;;;22.92;40.36;100803.13;5040431;28;20569;-70